Terminal Aerodrome Forecast
Issued by NWS

Home | Current Version | Previous Version | Text Only | Print | Product List | Glossary On
Versions: 1 2 3 4 5 6 7 8 9 10 11 12 13
000
FTPA31 PHFO 242335
TAFHJH
TAF
PHJH 242335Z 2500/2524 01015G21KT P6SM FEW030 SCT050
     FM250600 05011KT P6SM FEW030 SCT050
     FM251200 05005KT P6SM FEW030 SCT050
     FM252000 05013G19KT P6SM FEW030 SCT050
      AMD NOT SKED AFT 250400=

USA.gov is the U.S. government's official web portal to all federal, state and local government web resources and services.